createdAt,value
2022-11-28T00:01:39.171Z,71.10
2022-11-28T00:04:09.003Z,64.80
2022-11-28T00:06:46.777Z,65.80
2022-11-28T00:09:16.000Z,68.20
2022-11-28T00:11:45.917Z,68.40
2022-11-28T00:14:15.405Z,74.70
2022-11-28T00:16:43.599Z,73.50
2022-11-28T00:19:12.995Z,65.40
2022-11-28T00:21:41.892Z,69.10
2022-11-28T00:24:10.121Z,65.80
2022-11-28T00:26:40.768Z,73.30
2022-11-28T00:29:10.487Z,67.50
2022-11-28T00:31:43.152Z,63.90
2022-11-28T00:34:13.638Z,67.80
2022-11-28T00:36:44.187Z,69.40
2022-11-28T00:39:13.054Z,73.60
2022-11-28T00:41:41.519Z,65.80
2022-11-28T00:44:09.907Z,73.00
2022-11-28T00:46:37.783Z,73.80
2022-11-28T00:49:05.926Z,73.20
2022-11-28T00:51:35.450Z,71.50
2022-11-28T00:54:05.681Z,72.90
2022-11-28T00:56:36.688Z,74.90
2022-11-28T00:59:05.350Z,70.90
2022-11-28T01:01:37.500Z,76.80
2022-11-28T01:04:08.343Z,80.80
2022-11-28T01:06:41.554Z,80.80
2022-11-28T01:09:13.892Z,65.50
2022-11-28T01:11:42.859Z,78.20
2022-11-28T01:14:13.371Z,80.30
2022-11-28T01:16:42.065Z,79.00
2022-11-28T01:19:10.463Z,76.30
2022-11-28T01:21:38.533Z,74.40
2022-11-28T01:24:06.428Z,75.80
2022-11-28T01:26:34.262Z,76.80
2022-11-28T01:29:02.342Z,75.90
2022-11-28T01:31:31.056Z,76.50
2022-11-28T01:33:59.308Z,79.30
2022-11-28T01:36:28.004Z,80.90
2022-11-28T01:38:55.852Z,81.00
2022-11-28T01:41:27.415Z,77.00
2022-11-28T01:44:06.940Z,85.10
2022-11-28T01:46:36.179Z,81.00
2022-11-28T01:49:22.374Z,86.60
2022-11-28T01:51:55.848Z,78.90
2022-11-28T01:54:26.475Z,75.90
2022-11-28T01:57:06.421Z,77.20
2022-11-28T01:59:39.391Z,77.70
2022-11-28T02:02:13.541Z,75.70
2022-11-28T02:04:42.653Z,77.30
2022-11-28T02:07:10.908Z,78.70
2022-11-28T02:09:38.872Z,78.00
2022-11-28T02:12:07.058Z,75.80
2022-11-28T02:14:55.600Z,76.20
2022-11-28T02:17:42.819Z,81.20
2022-11-28T02:20:29.555Z,72.00
2022-11-28T02:23:35.191Z,74.70
2022-11-28T02:26:31.473Z,75.70
2022-11-28T02:29:10.655Z,75.60
2022-11-28T02:32:14.882Z,79.10
2022-11-28T02:34:54.825Z,55.60
2022-11-28T02:37:27.033Z,73.80
2022-11-28T02:40:08.928Z,80.60
2022-11-28T02:42:52.015Z,75.70
2022-11-28T02:45:51.127Z,81.60
2022-11-28T02:48:44.095Z,81.90
2022-11-28T02:51:35.883Z,79.70
2022-11-28T02:54:06.444Z,81.20
2022-11-28T02:56:34.400Z,73.80
2022-11-28T02:59:02.467Z,76.30
2022-11-28T03:01:38.458Z,66.80
2022-11-28T03:04:47.975Z,69.80
2022-11-28T03:07:40.399Z,72.60
2022-11-28T03:10:19.829Z,72.80
2022-11-28T03:13:00.935Z,68.70
2022-11-28T03:15:41.913Z,69.10
2022-11-28T03:18:34.355Z,73.90
2022-11-28T03:21:43.570Z,66.90
2022-11-28T03:24:33.353Z,71.00
2022-11-28T03:27:10.280Z,71.50
2022-11-28T03:29:44.524Z,71.90
2022-11-28T03:32:20.759Z,70.90
2022-11-28T03:34:55.862Z,74.10
2022-11-28T03:37:30.107Z,70.70
2022-11-28T03:40:02.881Z,75.50
2022-11-28T03:42:36.501Z,75.10
2022-11-28T03:45:17.240Z,67.60
2022-11-28T03:47:49.138Z,70.00
2022-11-28T03:50:22.146Z,67.50
2022-11-28T03:52:59.433Z,72.00
2022-11-28T03:55:45.633Z,74.60
2022-11-28T03:58:37.037Z,73.00
2022-11-28T04:01:27.013Z,76.90
2022-11-28T04:03:59.863Z,72.20
2022-11-28T04:06:33.313Z,68.20
2022-11-28T04:09:13.021Z,68.30
2022-11-28T04:11:49.646Z,70.90
2022-11-28T04:14:26.664Z,64.30
2022-11-28T04:17:33.444Z,77.40
2022-11-28T04:20:12.416Z,74.00
2022-11-28T04:22:51.196Z,76.00
2022-11-28T04:25:22.296Z,72.00
2022-11-28T04:28:02.994Z,74.60
2022-11-28T04:30:31.886Z,72.10
2022-11-28T04:33:05.916Z,71.00
2022-11-28T04:35:38.135Z,74.80
2022-11-28T04:38:09.530Z,90.30
2022-11-28T04:40:44.559Z,78.60
2022-11-28T04:43:20.438Z,65.20
2022-11-28T04:45:56.205Z,63.50
2022-11-28T04:51:09.214Z,63.80
2022-11-28T04:54:02.528Z,69.30
2022-11-28T04:56:47.455Z,62.90
2022-11-28T04:59:16.228Z,64.30
2022-11-28T05:01:47.421Z,58.80
2022-11-28T05:04:17.325Z,64.20
2022-11-28T05:06:45.702Z,67.80
2022-11-28T05:09:14.468Z,63.80
2022-11-28T05:11:44.739Z,65.20
2022-11-28T05:14:12.654Z,58.80
2022-11-28T05:16:40.995Z,59.80
2022-11-28T05:19:09.208Z,56.80
2022-11-28T05:21:37.179Z,62.80
2022-11-28T05:24:05.849Z,62.50
2022-11-28T05:26:35.569Z,54.10
2022-11-28T05:29:04.259Z,51.60
2022-11-28T05:31:32.452Z,56.90
2022-11-28T05:34:00.648Z,52.80
2022-11-28T05:36:28.684Z,53.60
2022-11-28T05:38:56.859Z,54.30
2022-11-28T05:41:30.454Z,56.50
2022-11-28T05:43:59.558Z,52.50
2022-11-28T05:46:28.557Z,57.50
2022-11-28T05:48:56.925Z,53.30
2022-11-28T05:51:25.005Z,61.50
2022-11-28T05:53:53.176Z,52.80
2022-11-28T05:56:23.495Z,55.50
2022-11-28T05:58:54.497Z,54.80
2022-11-28T06:01:25.895Z,56.60
2022-11-28T06:04:00.057Z,57.30
2022-11-28T06:06:33.441Z,48.20
2022-11-28T06:09:01.817Z,52.50
2022-11-28T06:11:31.364Z,50.20
2022-11-28T06:13:59.765Z,55.10
2022-11-28T06:16:30.117Z,54.00
2022-11-28T06:19:01.017Z,52.80
2022-11-28T06:21:30.033Z,54.70
2022-11-28T06:23:59.539Z,49.10
2022-11-28T06:26:28.940Z,50.80
2022-11-28T06:28:57.319Z,52.70
2022-11-28T06:31:28.707Z,60.10
2022-11-28T06:33:58.375Z,55.00
2022-11-28T06:36:26.856Z,51.20
2022-11-28T06:38:54.933Z,53.50
2022-11-28T06:41:23.225Z,48.80
2022-11-28T06:43:51.588Z,51.20
2022-11-28T06:46:21.700Z,53.80
2022-11-28T06:48:51.928Z,53.40
2022-11-28T06:51:20.817Z,50.30
2022-11-28T06:53:50.020Z,49.20
2022-11-28T06:56:19.969Z,68.20
2022-11-28T06:58:53.517Z,54.00
2022-11-28T07:01:23.369Z,48.10
2022-11-28T07:03:54.558Z,55.20
2022-11-28T07:06:25.100Z,49.10
2022-11-28T07:08:53.821Z,55.00
2022-11-28T07:11:25.013Z,46.40
2022-11-28T07:13:54.663Z,50.70
2022-11-28T07:16:25.546Z,55.80
2022-11-28T07:18:56.219Z,53.50
2022-11-28T07:21:24.319Z,53.30
2022-11-28T07:23:52.592Z,53.90
2022-11-28T07:26:21.887Z,49.30
2022-11-28T07:28:51.365Z,50.90
2022-11-28T07:31:22.595Z,53.70
2022-11-28T07:33:51.438Z,47.50
2022-11-28T07:36:25.537Z,50.30
2022-11-28T07:38:56.684Z,50.10
2022-11-28T07:41:26.950Z,53.60
2022-11-28T07:43:57.509Z,47.10
2022-11-28T07:46:26.643Z,51.00
2022-11-28T07:48:55.319Z,48.30
2022-11-28T07:51:32.134Z,50.00
2022-11-28T07:54:01.921Z,48.90
2022-11-28T07:59:22.029Z,53.20
2022-11-28T08:01:50.391Z,52.10
2022-11-28T08:04:18.349Z,48.00
2022-11-28T08:06:46.375Z,52.50
2022-11-28T08:09:14.620Z,53.60
2022-11-28T08:11:43.201Z,47.20
2022-11-28T08:14:11.696Z,51.50
2022-11-28T08:16:44.933Z,46.20
2022-11-28T08:19:13.257Z,50.80
2022-11-28T08:21:42.152Z,52.50
2022-11-28T08:24:11.649Z,54.70
2022-11-28T08:26:39.635Z,53.70
2022-11-28T08:29:08.310Z,50.70
2022-11-28T08:31:38.597Z,51.30
2022-11-28T08:34:09.982Z,50.00
2022-11-28T08:36:38.001Z,49.60
2022-11-28T08:39:23.519Z,50.10
2022-11-28T08:41:59.859Z,49.40
2022-11-28T08:44:30.285Z,52.80
2022-11-28T08:46:59.120Z,48.80
2022-11-28T08:49:27.094Z,45.10
2022-11-28T08:51:55.170Z,44.00
2022-11-28T08:54:23.386Z,52.60
2022-11-28T08:56:51.409Z,50.80
2022-11-28T08:59:19.385Z,49.50
2022-11-28T09:01:47.577Z,52.30
2022-11-28T09:04:15.714Z,47.50
2022-11-28T09:06:43.831Z,49.90
2022-11-28T09:09:11.996Z,49.00
2022-11-28T09:11:39.944Z,49.40
2022-11-28T09:14:08.547Z,46.40
2022-11-28T09:16:39.309Z,47.30
2022-11-28T09:19:09.400Z,47.70
2022-11-28T09:21:37.921Z,52.60
2022-11-28T09:24:06.514Z,51.20
2022-11-28T09:26:34.474Z,53.80
2022-11-28T09:29:02.291Z,48.10
2022-11-28T09:31:30.253Z,50.10
2022-11-28T09:33:58.268Z,50.00
2022-11-28T09:36:28.601Z,47.70
2022-11-28T09:38:56.834Z,49.40
2022-11-28T09:41:27.347Z,49.80
2022-11-28T09:44:29.376Z,47.60
2022-11-28T09:47:03.925Z,46.70
2022-11-28T09:49:45.565Z,49.40
2022-11-28T09:52:32.437Z,45.90
2022-11-28T09:55:14.392Z,49.80
2022-11-28T09:57:53.648Z,48.90
2022-11-28T10:00:28.927Z,50.40
2022-11-28T10:03:09.389Z,48.20
2022-11-28T10:06:11.065Z,47.60
2022-11-28T10:09:03.470Z,44.90
2022-11-28T10:11:37.270Z,50.10
2022-11-28T10:14:40.466Z,49.40
2022-11-28T10:17:46.153Z,43.30
2022-11-28T10:20:21.460Z,43.00
2022-11-28T10:23:07.842Z,48.70
2022-11-28T10:25:44.372Z,43.60
2022-11-28T10:28:23.276Z,47.10
2022-11-28T10:30:59.918Z,43.80
2022-11-28T10:33:40.219Z,47.70
2022-11-28T10:36:17.220Z,47.00
2022-11-28T10:38:45.296Z,45.10
2022-11-28T10:41:32.196Z,41.90
2022-11-28T10:44:27.508Z,47.80
2022-11-28T10:47:07.146Z,54.90
2022-11-28T10:49:56.417Z,47.70
2022-11-28T10:52:36.070Z,44.30
2022-11-28T10:55:27.977Z,48.80
2022-11-28T10:58:21.532Z,43.90
2022-11-28T11:00:55.097Z,49.40
2022-11-28T11:03:29.953Z,45.90
2022-11-28T11:05:58.420Z,49.40
2022-11-28T11:08:29.528Z,48.10
2022-11-28T11:11:34.677Z,43.10
2022-11-28T11:14:07.307Z,47.30
2022-11-28T11:16:53.897Z,43.70
2022-11-28T11:19:37.476Z,48.60
2022-11-28T11:22:24.843Z,47.40
2022-11-28T11:25:15.877Z,44.50
2022-11-28T11:27:50.920Z,46.70
2022-11-28T11:30:40.252Z,44.80
2022-11-28T11:33:17.100Z,47.30
2022-11-28T11:35:49.428Z,48.70
2022-11-28T11:38:20.413Z,43.10
2022-11-28T11:40:49.938Z,46.80
2022-11-28T11:43:33.270Z,61.60
2022-11-28T11:46:17.368Z,95.30
2022-11-28T11:48:47.687Z,80.70
2022-11-28T11:51:36.611Z,62.60
2022-11-28T11:54:24.425Z,67.40
2022-11-28T11:57:05.828Z,56.90
2022-11-28T11:59:56.876Z,53.20
2022-11-28T12:02:33.545Z,52.10
2022-11-28T12:05:10.215Z,51.30
2022-11-28T12:07:56.521Z,91.20
2022-11-28T12:10:27.818Z,68.30
2022-11-28T12:12:56.650Z,97.10
2022-11-28T12:15:33.788Z,53.20
2022-11-28T12:18:13.742Z,52.60
2022-11-28T12:20:56.269Z,71.10
2022-11-28T12:23:30.161Z,50.40
2022-11-28T12:26:10.799Z,69.10
2022-11-28T12:28:57.541Z,56.50
2022-11-28T12:31:53.902Z,49.60
2022-11-28T12:35:02.473Z,76.30
2022-11-28T12:38:10.821Z,63.90
2022-11-28T12:41:10.785Z,68.70
2022-11-28T12:44:11.689Z,65.80
2022-11-28T12:46:48.509Z,64.70
2022-11-28T12:49:17.664Z,55.70
2022-11-28T12:52:13.929Z,53.40
2022-11-28T12:55:06.941Z,48.80
2022-11-28T12:57:53.850Z,87.50
2022-11-28T13:00:26.213Z,66.70
2022-11-28T13:03:24.765Z,65.30
2022-11-28T13:06:11.741Z,51.70
2022-11-28T13:08:48.724Z,56.00
2022-11-28T13:11:27.177Z,46.30
2022-11-28T13:14:03.185Z,46.70
2022-11-28T13:19:32.096Z,48.70
2022-11-28T13:22:25.631Z,55.80
2022-11-28T13:25:00.830Z,53.70
2022-11-28T13:27:36.414Z,57.10
2022-11-28T13:30:24.669Z,79.40
2022-11-28T13:33:23.941Z,46.70
2022-11-28T13:35:53.365Z,53.10
2022-11-28T13:38:36.597Z,41.40
2022-11-28T13:41:59.494Z,46.30
2022-11-28T13:44:28.825Z,46.80
2022-11-28T13:46:56.933Z,74.00
2022-11-28T13:49:27.084Z,68.90
2022-11-28T13:52:20.350Z,49.50
2022-11-28T13:54:50.843Z,44.40
2022-11-28T13:57:29.211Z,42.80
2022-11-28T14:00:02.051Z,42.10
2022-11-28T14:02:48.308Z,42.60
2022-11-28T14:05:41.586Z,41.30
2022-11-28T14:08:28.445Z,40.50
2022-11-28T14:11:21.433Z,40.00
2022-11-28T14:14:21.800Z,45.50
2022-11-28T14:17:13.830Z,48.60
2022-11-28T14:20:01.012Z,53.00
2022-11-28T14:22:41.219Z,39.40
2022-11-28T14:25:28.776Z,39.30
2022-11-28T14:28:07.767Z,42.00
2022-11-28T14:30:39.978Z,43.80
2022-11-28T14:33:26.866Z,45.80
2022-11-28T14:35:54.958Z,38.80
2022-11-28T14:38:33.875Z,40.30
2022-11-28T14:41:15.407Z,39.20
2022-11-28T14:43:46.343Z,38.30
2022-11-28T14:46:27.048Z,37.60
2022-11-28T14:48:58.646Z,40.40
2022-11-28T14:51:45.659Z,33.90
2022-11-28T14:54:35.999Z,44.60
2022-11-28T14:57:17.039Z,38.90
2022-11-28T14:59:45.955Z,41.60
2022-11-28T15:02:30.884Z,35.50
2022-11-28T15:05:07.885Z,37.60
2022-11-28T15:08:01.573Z,42.90
2022-11-28T15:10:39.651Z,39.70
2022-11-28T15:13:14.078Z,40.50
2022-11-28T15:15:49.856Z,43.50
2022-11-28T15:18:20.602Z,45.60
2022-11-28T15:20:58.995Z,44.00
2022-11-28T15:23:35.599Z,43.20
2022-11-28T15:26:03.627Z,39.70
2022-11-28T15:28:35.624Z,43.30
2022-11-28T15:31:05.958Z,38.10
2022-11-28T15:33:34.803Z,47.50
2022-11-28T15:36:12.521Z,52.00
2022-11-28T15:38:43.045Z,48.50
2022-11-28T15:41:11.501Z,51.00
2022-11-28T15:43:45.746Z,67.80
2022-11-28T15:46:32.448Z,66.00
2022-11-28T15:49:05.330Z,91.30
2022-11-28T15:51:35.741Z,61.50
2022-11-28T15:54:26.751Z,64.20
2022-11-28T15:56:59.009Z,56.50
2022-11-28T15:59:28.635Z,60.40
2022-11-28T16:02:10.766Z,64.90
2022-11-28T16:04:39.626Z,49.50
2022-11-28T16:07:14.874Z,63.70
2022-11-28T16:10:06.288Z,45.00
2022-11-28T16:12:34.364Z,79.10
2022-11-28T16:15:04.068Z,58.50
2022-11-28T16:17:34.092Z,66.70
2022-11-28T16:20:03.288Z,182.60
2022-11-28T16:22:37.073Z,234.60
2022-11-28T16:25:33.010Z,284.80
2022-11-28T16:28:01.291Z,127.20
2022-11-28T16:30:36.757Z,122.70
2022-11-28T16:33:38.050Z,91.30
2022-11-28T16:36:15.157Z,148.00
2022-11-28T16:38:44.472Z,123.10
2022-11-28T16:41:23.097Z,134.60
2022-11-28T16:44:07.280Z,120.80
2022-11-28T16:46:39.308Z,86.60
2022-11-28T16:49:37.670Z,107.60
2022-11-28T16:52:20.946Z,72.00
2022-11-28T16:54:53.611Z,59.90
2022-11-28T16:57:22.489Z,59.40
2022-11-28T16:59:54.638Z,58.00
2022-11-28T17:02:26.882Z,64.10
2022-11-28T17:04:55.103Z,60.40
2022-11-28T17:07:24.321Z,91.20
2022-11-28T17:09:52.687Z,186.00
2022-11-28T17:12:34.788Z,91.00
2022-11-28T17:15:03.777Z,138.00
2022-11-28T17:17:32.075Z,155.40
2022-11-28T17:20:00.444Z,118.70
2022-11-28T17:22:43.357Z,134.20
2022-11-28T17:25:16.712Z,232.70
2022-11-28T17:27:45.154Z,123.10
2022-11-28T17:30:15.115Z,176.80
2022-11-28T17:32:42.991Z,105.10
2022-11-28T17:35:18.789Z,92.90
2022-11-28T17:37:47.562Z,98.50
2022-11-28T17:40:34.060Z,151.80
2022-11-28T17:43:03.250Z,93.20
2022-11-28T17:45:35.074Z,83.10
2022-11-28T17:48:03.455Z,61.70
2022-11-28T17:50:31.891Z,58.60
2022-11-28T17:53:00.001Z,56.40
2022-11-28T17:55:29.560Z,52.70
2022-11-28T17:57:57.427Z,88.00
2022-11-28T18:00:25.711Z,92.80
2022-11-28T18:02:54.605Z,80.90
2022-11-28T18:05:22.977Z,116.10
2022-11-28T18:07:51.173Z,132.20
2022-11-28T18:10:19.121Z,113.70
2022-11-28T18:12:46.967Z,136.50
2022-11-28T18:15:15.178Z,87.60
2022-11-28T18:17:43.240Z,92.60
2022-11-28T18:20:12.133Z,80.00
2022-11-28T18:22:40.237Z,76.50
2022-11-28T18:25:09.530Z,154.80
2022-11-28T18:27:37.496Z,112.20
2022-11-28T18:30:06.790Z,74.50
2022-11-28T18:32:35.156Z,204.40
2022-11-28T18:35:03.426Z,115.80
2022-11-28T18:37:31.321Z,124.70
2022-11-28T18:39:59.422Z,98.80
2022-11-28T18:42:27.957Z,98.70
2022-11-28T18:44:56.235Z,83.90
2022-11-28T18:47:26.187Z,81.00
2022-11-28T18:49:54.458Z,61.90
2022-11-28T18:52:23.010Z,55.60
2022-11-28T18:54:51.574Z,57.10
2022-11-28T18:57:21.914Z,53.50
2022-11-28T18:59:54.765Z,86.70
2022-11-28T19:02:24.009Z,62.90
2022-11-28T19:04:53.416Z,57.60
2022-11-28T19:07:22.965Z,58.60
2022-11-28T19:09:51.768Z,63.10
2022-11-28T19:12:20.595Z,61.50
2022-11-28T19:14:48.455Z,54.10
2022-11-28T19:17:16.821Z,47.00
2022-11-28T19:19:45.203Z,44.30
2022-11-28T19:22:13.697Z,42.10
2022-11-28T19:24:41.775Z,43.60
2022-11-28T19:27:14.311Z,43.00
2022-11-28T19:29:43.809Z,42.70
2022-11-28T19:32:12.775Z,38.30
2022-11-28T19:34:41.469Z,45.50
2022-11-28T19:37:09.717Z,46.90
2022-11-28T19:39:37.875Z,54.50
2022-11-28T19:42:07.327Z,40.90
2022-11-28T19:44:35.905Z,40.10
2022-11-28T19:47:06.233Z,46.90
2022-11-28T19:49:34.167Z,46.60
2022-11-28T19:52:02.852Z,39.30
2022-11-28T19:54:30.951Z,43.40
2022-11-28T19:56:59.130Z,47.70
2022-11-28T19:59:27.703Z,39.00
2022-11-28T20:01:55.801Z,41.90
2022-11-28T20:04:24.346Z,54.10
2022-11-28T20:06:52.520Z,42.40
2022-11-28T20:09:20.489Z,41.70
2022-11-28T20:11:48.970Z,38.40
2022-11-28T20:14:19.049Z,43.50
2022-11-28T20:16:47.509Z,41.00
2022-11-28T20:19:18.006Z,44.20
2022-11-28T20:21:46.740Z,42.50
2022-11-28T20:24:16.067Z,39.60
2022-11-28T20:26:46.929Z,43.60
2022-11-28T20:29:16.742Z,41.30
2022-11-28T20:31:47.668Z,42.00
2022-11-28T20:34:19.530Z,42.10
2022-11-28T20:36:53.790Z,42.30
2022-11-28T20:39:21.727Z,38.50
2022-11-28T20:41:49.895Z,39.60
2022-11-28T20:44:19.040Z,39.40
2022-11-28T20:46:47.371Z,41.70
2022-11-28T20:49:16.076Z,46.60
2022-11-28T20:51:44.239Z,40.60
2022-11-28T20:54:13.944Z,40.80
2022-11-28T20:57:19.210Z,39.60
2022-11-28T20:59:32.931Z,42.50
2022-11-28T21:02:01.391Z,42.80
2022-11-28T21:04:29.272Z,44.50
2022-11-28T21:06:57.142Z,41.20
2022-11-28T21:09:25.423Z,39.80
2022-11-28T21:11:58.980Z,45.20
2022-11-28T21:14:29.424Z,35.80
2022-11-28T21:16:58.905Z,40.50
2022-11-28T21:19:27.368Z,44.60
2022-11-28T21:21:55.348Z,43.40
2022-11-28T21:24:23.381Z,41.50
2022-11-28T21:26:54.516Z,44.50
2022-11-28T21:29:24.828Z,42.20
2022-11-28T21:31:53.434Z,46.40
2022-11-28T21:34:22.560Z,44.40
2022-11-28T21:36:50.780Z,41.80
2022-11-28T21:39:20.626Z,46.30
2022-11-28T21:41:49.007Z,44.70
2022-11-28T21:44:17.087Z,43.50
2022-11-28T21:46:45.958Z,40.60
2022-11-28T21:49:14.163Z,42.60
2022-11-28T21:51:42.308Z,43.70
2022-11-28T21:54:11.504Z,44.50
2022-11-28T21:56:39.687Z,45.50
2022-11-28T21:59:08.022Z,48.30
2022-11-28T22:01:36.190Z,44.20
2022-11-28T22:04:05.643Z,44.70
2022-11-28T22:06:34.235Z,41.80
2022-11-28T22:09:08.996Z,42.20
2022-11-28T22:11:39.686Z,41.50
2022-11-28T22:14:08.201Z,43.30
2022-11-28T22:16:37.373Z,43.50
2022-11-28T22:19:05.726Z,42.70
2022-11-28T22:22:08.428Z,40.20
2022-11-28T22:24:37.386Z,38.60
2022-11-28T22:27:06.215Z,43.00
2022-11-28T22:29:35.139Z,48.10
2022-11-28T22:32:04.529Z,45.50
2022-11-28T22:34:37.045Z,42.80
2022-11-28T22:37:07.694Z,46.40
2022-11-28T22:39:35.745Z,41.50
2022-11-28T22:42:03.869Z,42.70
2022-11-28T22:44:32.554Z,41.70
2022-11-28T22:47:00.411Z,42.50
2022-11-28T22:49:29.614Z,41.90
2022-11-28T22:51:57.795Z,41.40
2022-11-28T22:54:26.065Z,41.20
2022-11-28T22:56:55.374Z,44.30
2022-11-28T22:59:23.750Z,45.80
2022-11-28T23:01:52.062Z,39.40
2022-11-28T23:04:20.418Z,44.10
2022-11-28T23:06:49.403Z,41.10
2022-11-28T23:09:19.011Z,45.00
2022-11-28T23:11:46.984Z,43.90
2022-11-28T23:14:15.662Z,40.20
2022-11-28T23:16:45.169Z,40.80
2022-11-28T23:19:16.830Z,40.40
2022-11-28T23:21:48.133Z,42.80
2022-11-28T23:24:20.071Z,43.00
2022-11-28T23:26:49.163Z,38.90
2022-11-28T23:29:18.016Z,39.90
2022-11-28T23:31:47.076Z,43.80
2022-11-28T23:34:16.018Z,40.40
2022-11-28T23:36:46.650Z,36.70
2022-11-28T23:39:17.214Z,37.00
2022-11-28T23:41:45.967Z,39.40
2022-11-28T23:44:15.336Z,34.80
2022-11-28T23:46:44.262Z,39.00
2022-11-28T23:49:12.762Z,40.00
2022-11-28T23:51:41.629Z,35.70
2022-11-28T23:54:11.193Z,36.50
2022-11-28T23:56:41.674Z,38.90
2022-11-28T23:59:13.329Z,38.00
